sensor_id;sensor_type;location;lat;lon;timestamp;P1;durP1;ratioP1;P2;durP2;ratioP2
57856;SDS011;43683;48.650;9.290;2022-07-12T00:01:04;6.43;;;3.97;;
57856;SDS011;43683;48.650;9.290;2022-07-12T00:03:30;6.55;;;3.60;;
57856;SDS011;43683;48.650;9.290;2022-07-12T00:05:56;6.45;;;3.83;;
57856;SDS011;43683;48.650;9.290;2022-07-12T00:08:22;6.80;;;4.00;;
57856;SDS011;43683;48.650;9.290;2022-07-12T00:10:48;5.55;;;3.45;;
57856;SDS011;43683;48.650;9.290;2022-07-12T00:13:13;8.60;;;4.10;;
57856;SDS011;43683;48.650;9.290;2022-07-12T00:15:40;5.23;;;3.20;;
57856;SDS011;43683;48.650;9.290;2022-07-12T00:18:07;6.30;;;3.67;;
57856;SDS011;43683;48.650;9.290;2022-07-12T00:20:33;6.80;;;3.83;;
57856;SDS011;43683;48.650;9.290;2022-07-12T00:22:58;6.68;;;4.18;;
57856;SDS011;43683;48.650;9.290;2022-07-12T00:25:24;7.03;;;3.83;;
57856;SDS011;43683;48.650;9.290;2022-07-12T00:27:50;6.97;;;4.05;;
57856;SDS011;43683;48.650;9.290;2022-07-12T00:30:16;7.38;;;4.03;;
57856;SDS011;43683;48.650;9.290;2022-07-12T00:32:42;8.02;;;4.18;;
57856;SDS011;43683;48.650;9.290;2022-07-12T00:35:08;6.97;;;4.22;;
57856;SDS011;43683;48.650;9.290;2022-07-12T00:37:33;7.13;;;3.95;;
57856;SDS011;43683;48.650;9.290;2022-07-12T00:39:59;7.38;;;3.90;;
57856;SDS011;43683;48.650;9.290;2022-07-12T00:42:25;8.00;;;4.45;;
57856;SDS011;43683;48.650;9.290;2022-07-12T00:44:51;6.03;;;3.90;;
57856;SDS011;43683;48.650;9.290;2022-07-12T00:50:01;8.20;;;4.40;;
57856;SDS011;43683;48.650;9.290;2022-07-12T00:52:48;6.72;;;4.63;;
57856;SDS011;43683;48.650;9.290;2022-07-12T00:55:16;8.75;;;4.50;;
57856;SDS011;43683;48.650;9.290;2022-07-12T00:57:43;8.57;;;4.63;;
57856;SDS011;43683;48.650;9.290;2022-07-12T01:00:11;9.90;;;4.50;;
57856;SDS011;43683;48.650;9.290;2022-07-12T01:02:38;8.63;;;4.60;;
57856;SDS011;43683;48.650;9.290;2022-07-12T01:05:04;8.70;;;4.78;;
57856;SDS011;43683;48.650;9.290;2022-07-12T01:09:59;6.28;;;4.07;;
57856;SDS011;43683;48.650;9.290;2022-07-12T01:12:25;7.30;;;4.45;;
57856;SDS011;43683;48.650;9.290;2022-07-12T01:14:52;7.72;;;4.30;;
57856;SDS011;43683;48.650;9.290;2022-07-12T01:17:18;7.60;;;4.53;;
57856;SDS011;43683;48.650;9.290;2022-07-12T01:19:45;6.25;;;3.83;;
57856;SDS011;43683;48.650;9.290;2022-07-12T01:22:13;7.05;;;4.20;;
57856;SDS011;43683;48.650;9.290;2022-07-12T01:24:41;8.93;;;5.15;;
57856;SDS011;43683;48.650;9.290;2022-07-12T01:27:07;8.05;;;3.95;;
57856;SDS011;43683;48.650;9.290;2022-07-12T01:29:33;7.55;;;4.40;;
57856;SDS011;43683;48.650;9.290;2022-07-12T01:32:00;6.85;;;4.03;;
57856;SDS011;43683;48.650;9.290;2022-07-12T01:34:47;8.10;;;4.55;;
57856;SDS011;43683;48.650;9.290;2022-07-12T01:37:14;7.55;;;4.43;;
57856;SDS011;43683;48.650;9.290;2022-07-12T01:39:42;6.82;;;3.95;;
57856;SDS011;43683;48.650;9.290;2022-07-12T01:42:08;7.05;;;4.07;;
57856;SDS011;43683;48.650;9.290;2022-07-12T01:44:34;6.38;;;3.95;;
57856;SDS011;43683;48.650;9.290;2022-07-12T01:47:00;7.15;;;4.35;;
57856;SDS011;43683;48.650;9.290;2022-07-12T01:49:26;6.95;;;4.05;;
57856;SDS011;43683;48.650;9.290;2022-07-12T01:51:51;7.40;;;4.07;;
57856;SDS011;43683;48.650;9.290;2022-07-12T01:54:17;6.88;;;4.18;;
57856;SDS011;43683;48.650;9.290;2022-07-12T01:56:42;6.30;;;4.30;;
57856;SDS011;43683;48.650;9.290;2022-07-12T01:59:08;7.22;;;4.18;;
57856;SDS011;43683;48.650;9.290;2022-07-12T02:01:34;7.13;;;4.03;;
57856;SDS011;43683;48.650;9.290;2022-07-12T02:04:02;7.15;;;4.20;;
57856;SDS011;43683;48.650;9.290;2022-07-12T02:06:28;7.93;;;4.35;;
57856;SDS011;43683;48.650;9.290;2022-07-12T02:08:55;7.68;;;4.30;;
57856;SDS011;43683;48.650;9.290;2022-07-12T02:11:20;7.05;;;4.07;;
57856;SDS011;43683;48.650;9.290;2022-07-12T02:13:46;7.47;;;4.75;;
57856;SDS011;43683;48.650;9.290;2022-07-12T02:16:11;7.15;;;4.10;;
57856;SDS011;43683;48.650;9.290;2022-07-12T02:18:37;8.27;;;4.40;;
57856;SDS011;43683;48.650;9.290;2022-07-12T02:21:02;8.25;;;4.50;;
57856;SDS011;43683;48.650;9.290;2022-07-12T02:23:28;7.25;;;4.53;;
57856;SDS011;43683;48.650;9.290;2022-07-12T02:25:53;8.75;;;5.00;;
57856;SDS011;43683;48.650;9.290;2022-07-12T02:28:19;9.77;;;5.00;;
57856;SDS011;43683;48.650;9.290;2022-07-12T02:30:44;7.63;;;4.50;;
57856;SDS011;43683;48.650;9.290;2022-07-12T02:33:11;8.70;;;4.68;;
57856;SDS011;43683;48.650;9.290;2022-07-12T02:35:36;6.75;;;4.30;;
57856;SDS011;43683;48.650;9.290;2022-07-12T02:38:02;6.53;;;3.97;;
57856;SDS011;43683;48.650;9.290;2022-07-12T02:40:27;6.75;;;3.65;;
57856;SDS011;43683;48.650;9.290;2022-07-12T02:43:12;7.55;;;3.90;;
57856;SDS011;43683;48.650;9.290;2022-07-12T02:45:37;6.40;;;3.92;;
57856;SDS011;43683;48.650;9.290;2022-07-12T02:48:03;6.82;;;4.50;;
57856;SDS011;43683;48.650;9.290;2022-07-12T02:50:29;9.85;;;5.93;;
57856;SDS011;43683;48.650;9.290;2022-07-12T02:52:54;12.82;;;6.70;;
57856;SDS011;43683;48.650;9.290;2022-07-12T02:55:20;11.57;;;6.47;;
57856;SDS011;43683;48.650;9.290;2022-07-12T02:57:45;10.25;;;6.28;;
57856;SDS011;43683;48.650;9.290;2022-07-12T03:00:11;10.63;;;4.75;;
57856;SDS011;43683;48.650;9.290;2022-07-12T03:02:37;8.82;;;6.00;;
57856;SDS011;43683;48.650;9.290;2022-07-12T03:05:02;10.35;;;5.63;;
57856;SDS011;43683;48.650;9.290;2022-07-12T03:07:28;9.35;;;5.38;;
57856;SDS011;43683;48.650;9.290;2022-07-12T03:09:54;11.02;;;5.53;;
57856;SDS011;43683;48.650;9.290;2022-07-12T03:12:19;8.73;;;5.35;;
57856;SDS011;43683;48.650;9.290;2022-07-12T03:14:45;8.77;;;5.57;;
57856;SDS011;43683;48.650;9.290;2022-07-12T03:17:10;7.80;;;5.10;;
57856;SDS011;43683;48.650;9.290;2022-07-12T03:19:36;8.23;;;4.70;;
57856;SDS011;43683;48.650;9.290;2022-07-12T03:22:01;8.15;;;4.88;;
57856;SDS011;43683;48.650;9.290;2022-07-12T03:24:27;8.75;;;4.35;;
57856;SDS011;43683;48.650;9.290;2022-07-12T03:26:52;8.85;;;5.25;;
57856;SDS011;43683;48.650;9.290;2022-07-12T03:29:18;8.63;;;4.88;;
57856;SDS011;43683;48.650;9.290;2022-07-12T03:31:43;7.85;;;4.93;;
57856;SDS011;43683;48.650;9.290;2022-07-12T03:34:09;9.43;;;4.97;;
57856;SDS011;43683;48.650;9.290;2022-07-12T03:36:34;8.38;;;5.05;;
57856;SDS011;43683;48.650;9.290;2022-07-12T03:39:00;8.93;;;5.50;;
57856;SDS011;43683;48.650;9.290;2022-07-12T03:41:25;7.95;;;5.40;;
57856;SDS011;43683;48.650;9.290;2022-07-12T03:43:51;8.60;;;5.20;;
57856;SDS011;43683;48.650;9.290;2022-07-12T03:46:16;9.35;;;4.88;;
57856;SDS011;43683;48.650;9.290;2022-07-12T03:48:42;6.85;;;4.75;;
57856;SDS011;43683;48.650;9.290;2022-07-12T03:51:07;9.35;;;5.38;;
57856;SDS011;43683;48.650;9.290;2022-07-12T03:53:33;9.32;;;4.75;;
57856;SDS011;43683;48.650;9.290;2022-07-12T03:55:58;8.18;;;4.55;;
57856;SDS011;43683;48.650;9.290;2022-07-12T03:58:24;8.30;;;4.75;;
57856;SDS011;43683;48.650;9.290;2022-07-12T04:00:49;8.68;;;4.53;;
57856;SDS011;43683;48.650;9.290;2022-07-12T04:03:15;8.48;;;4.90;;
57856;SDS011;43683;48.650;9.290;2022-07-12T04:05:40;9.95;;;4.57;;
57856;SDS011;43683;48.650;9.290;2022-07-12T04:08:07;7.18;;;4.20;;
57856;SDS011;43683;48.650;9.290;2022-07-12T04:10:32;8.13;;;4.65;;
57856;SDS011;43683;48.650;9.290;2022-07-12T04:12:58;7.53;;;4.78;;
57856;SDS011;43683;48.650;9.290;2022-07-12T04:15:23;7.47;;;4.40;;
57856;SDS011;43683;48.650;9.290;2022-07-12T04:17:49;7.38;;;4.80;;
57856;SDS011;43683;48.650;9.290;2022-07-12T04:20:14;6.53;;;4.22;;
57856;SDS011;43683;48.650;9.290;2022-07-12T04:22:40;7.40;;;4.50;;
57856;SDS011;43683;48.650;9.290;2022-07-12T04:25:06;7.43;;;4.65;;
57856;SDS011;43683;48.650;9.290;2022-07-12T04:27:33;7.97;;;4.67;;
57856;SDS011;43683;48.650;9.290;2022-07-12T04:29:58;7.30;;;4.53;;
57856;SDS011;43683;48.650;9.290;2022-07-12T04:32:24;8.25;;;4.57;;
57856;SDS011;43683;48.650;9.290;2022-07-12T04:34:50;8.57;;;4.65;;
57856;SDS011;43683;48.650;9.290;2022-07-12T04:37:15;6.47;;;4.07;;
57856;SDS011;43683;48.650;9.290;2022-07-12T04:39:42;7.93;;;4.63;;
57856;SDS011;43683;48.650;9.290;2022-07-12T04:42:07;7.70;;;4.28;;
57856;SDS011;43683;48.650;9.290;2022-07-12T04:44:33;7.22;;;4.60;;
57856;SDS011;43683;48.650;9.290;2022-07-12T04:46:59;8.35;;;4.05;;
57856;SDS011;43683;48.650;9.290;2022-07-12T04:49:24;9.65;;;4.70;;
57856;SDS011;43683;48.650;9.290;2022-07-12T04:51:50;6.82;;;4.32;;
57856;SDS011;43683;48.650;9.290;2022-07-12T04:54:15;8.70;;;4.55;;
57856;SDS011;43683;48.650;9.290;2022-07-12T04:56:41;6.57;;;4.30;;
57856;SDS011;43683;48.650;9.290;2022-07-12T04:59:06;8.52;;;5.05;;
57856;SDS011;43683;48.650;9.290;2022-07-12T05:01:32;8.65;;;4.60;;
57856;SDS011;43683;48.650;9.290;2022-07-12T05:03:58;8.98;;;5.03;;
57856;SDS011;43683;48.650;9.290;2022-07-12T05:06:23;10.07;;;5.15;;
57856;SDS011;43683;48.650;9.290;2022-07-12T05:08:49;7.32;;;4.63;;
57856;SDS011;43683;48.650;9.290;2022-07-12T05:11:15;8.00;;;4.82;;
57856;SDS011;43683;48.650;9.290;2022-07-12T05:13:40;7.25;;;4.90;;
57856;SDS011;43683;48.650;9.290;2022-07-12T05:16:09;8.45;;;5.20;;
57856;SDS011;43683;48.650;9.290;2022-07-12T05:18:35;7.07;;;4.45;;
57856;SDS011;43683;48.650;9.290;2022-07-12T05:21:00;8.35;;;5.07;;
57856;SDS011;43683;48.650;9.290;2022-07-12T05:23:26;8.85;;;4.78;;
57856;SDS011;43683;48.650;9.290;2022-07-12T05:25:52;7.82;;;4.55;;
57856;SDS011;43683;48.650;9.290;2022-07-12T05:28:17;9.10;;;4.38;;
57856;SDS011;43683;48.650;9.290;2022-07-12T05:30:43;6.20;;;4.20;;
57856;SDS011;43683;48.650;9.290;2022-07-12T05:33:09;8.95;;;5.43;;
57856;SDS011;43683;48.650;9.290;2022-07-12T05:35:37;9.40;;;4.93;;
57856;SDS011;43683;48.650;9.290;2022-07-12T05:38:02;7.15;;;4.53;;
57856;SDS011;43683;48.650;9.290;2022-07-12T05:40:28;7.80;;;4.88;;
57856;SDS011;43683;48.650;9.290;2022-07-12T05:42:54;7.03;;;4.25;;
57856;SDS011;43683;48.650;9.290;2022-07-12T05:45:19;7.25;;;5.00;;
57856;SDS011;43683;48.650;9.290;2022-07-12T05:47:46;8.50;;;4.75;;
57856;SDS011;43683;48.650;9.290;2022-07-12T05:50:12;6.90;;;4.30;;
57856;SDS011;43683;48.650;9.290;2022-07-12T05:52:37;7.18;;;4.18;;
57856;SDS011;43683;48.650;9.290;2022-07-12T05:55:21;6.22;;;3.75;;
57856;SDS011;43683;48.650;9.290;2022-07-12T05:57:47;7.07;;;3.70;;
57856;SDS011;43683;48.650;9.290;2022-07-12T06:00:12;5.97;;;3.72;;
57856;SDS011;43683;48.650;9.290;2022-07-12T06:02:38;7.78;;;3.90;;
57856;SDS011;43683;48.650;9.290;2022-07-12T06:05:04;9.57;;;3.38;;
57856;SDS011;43683;48.650;9.290;2022-07-12T06:07:29;7.18;;;3.67;;
57856;SDS011;43683;48.650;9.290;2022-07-12T06:09:55;5.45;;;3.10;;
57856;SDS011;43683;48.650;9.290;2022-07-12T06:12:20;4.72;;;2.70;;
57856;SDS011;43683;48.650;9.290;2022-07-12T06:14:46;4.75;;;2.92;;
57856;SDS011;43683;48.650;9.290;2022-07-12T06:17:13;5.67;;;3.03;;
57856;SDS011;43683;48.650;9.290;2022-07-12T06:19:38;5.75;;;2.85;;
57856;SDS011;43683;48.650;9.290;2022-07-12T06:22:04;5.03;;;2.83;;
57856;SDS011;43683;48.650;9.290;2022-07-12T06:24:29;4.85;;;2.78;;
57856;SDS011;43683;48.650;9.290;2022-07-12T06:26:55;4.07;;;2.50;;
57856;SDS011;43683;48.650;9.290;2022-07-12T06:29:20;3.45;;;2.47;;
57856;SDS011;43683;48.650;9.290;2022-07-12T06:31:46;3.40;;;2.47;;
57856;SDS011;43683;48.650;9.290;2022-07-12T06:34:11;4.30;;;2.45;;
57856;SDS011;43683;48.650;9.290;2022-07-12T06:36:37;2.95;;;2.25;;
57856;SDS011;43683;48.650;9.290;2022-07-12T06:39:02;2.92;;;2.30;;
57856;SDS011;43683;48.650;9.290;2022-07-12T06:41:28;3.90;;;2.10;;
57856;SDS011;43683;48.650;9.290;2022-07-12T06:43:54;5.78;;;2.05;;
57856;SDS011;43683;48.650;9.290;2022-07-12T06:46:20;1.95;;;1.73;;
57856;SDS011;43683;48.650;9.290;2022-07-12T06:48:45;3.42;;;1.85;;
57856;SDS011;43683;48.650;9.290;2022-07-12T06:51:11;2.47;;;2.00;;
57856;SDS011;43683;48.650;9.290;2022-07-12T06:53:36;4.30;;;2.28;;
57856;SDS011;43683;48.650;9.290;2022-07-12T06:56:02;3.60;;;1.88;;
57856;SDS011;43683;48.650;9.290;2022-07-12T06:58:28;2.63;;;1.67;;
57856;SDS011;43683;48.650;9.290;2022-07-12T07:00:53;5.30;;;1.77;;
57856;SDS011;43683;48.650;9.290;2022-07-12T07:03:19;2.15;;;1.42;;
57856;SDS011;43683;48.650;9.290;2022-07-12T07:05:44;2.05;;;1.50;;
57856;SDS011;43683;48.650;9.290;2022-07-12T07:08:10;3.05;;;1.45;;
57856;SDS011;43683;48.650;9.290;2022-07-12T07:10:35;2.53;;;1.45;;
57856;SDS011;43683;48.650;9.290;2022-07-12T07:13:01;1.63;;;1.33;;
57856;SDS011;43683;48.650;9.290;2022-07-12T07:15:26;2.35;;;1.45;;
57856;SDS011;43683;48.650;9.290;2022-07-12T07:17:52;2.15;;;1.40;;
57856;SDS011;43683;48.650;9.290;2022-07-12T07:20:17;1.67;;;1.25;;
57856;SDS011;43683;48.650;9.290;2022-07-12T07:22:43;2.33;;;1.40;;
57856;SDS011;43683;48.650;9.290;2022-07-12T07:25:08;2.22;;;1.40;;
57856;SDS011;43683;48.650;9.290;2022-07-12T07:27:34;1.80;;;1.30;;
57856;SDS011;43683;48.650;9.290;2022-07-12T07:29:59;1.20;;;1.10;;
57856;SDS011;43683;48.650;9.290;2022-07-12T07:32:44;0.90;;;0.88;;
57856;SDS011;43683;48.650;9.290;2022-07-12T07:35:10;1.58;;;1.00;;
57856;SDS011;43683;48.650;9.290;2022-07-12T07:37:36;1.95;;;1.30;;
57856;SDS011;43683;48.650;9.290;2022-07-12T07:40:02;2.10;;;1.30;;
57856;SDS011;43683;48.650;9.290;2022-07-12T07:42:28;2.25;;;1.60;;
57856;SDS011;43683;48.650;9.290;2022-07-12T07:44:53;3.10;;;1.42;;
57856;SDS011;43683;48.650;9.290;2022-07-12T07:47:19;2.33;;;1.40;;
57856;SDS011;43683;48.650;9.290;2022-07-12T07:49:44;1.02;;;0.85;;
57856;SDS011;43683;48.650;9.290;2022-07-12T07:52:10;4.25;;;1.10;;
57856;SDS011;43683;48.650;9.290;2022-07-12T07:54:35;1.25;;;1.10;;
57856;SDS011;43683;48.650;9.290;2022-07-12T07:57:01;1.08;;;0.95;;
57856;SDS011;43683;48.650;9.290;2022-07-12T07:59:26;1.52;;;0.90;;
57856;SDS011;43683;48.650;9.290;2022-07-12T08:01:52;0.77;;;0.77;;
57856;SDS011;43683;48.650;9.290;2022-07-12T08:04:18;3.50;;;0.90;;
57856;SDS011;43683;48.650;9.290;2022-07-12T08:06:45;0.60;;;0.60;;
57856;SDS011;43683;48.650;9.290;2022-07-12T08:09:11;2.47;;;1.07;;
57856;SDS011;43683;48.650;9.290;2022-07-12T08:11:37;0.60;;;0.60;;
57856;SDS011;43683;48.650;9.290;2022-07-12T08:14:03;1.42;;;0.70;;
57856;SDS011;43683;48.650;9.290;2022-07-12T08:16:30;1.50;;;1.30;;
57856;SDS011;43683;48.650;9.290;2022-07-12T08:18:56;2.20;;;1.50;;
57856;SDS011;43683;48.650;9.290;2022-07-12T08:21:22;1.48;;;1.20;;
57856;SDS011;43683;48.650;9.290;2022-07-12T08:23:48;1.98;;;1.83;;
57856;SDS011;43683;48.650;9.290;2022-07-12T08:26:14;5.15;;;3.58;;
57856;SDS011;43683;48.650;9.290;2022-07-12T08:28:40;6.15;;;4.60;;
57856;SDS011;43683;48.650;9.290;2022-07-12T08:31:05;6.47;;;4.82;;
57856;SDS011;43683;48.650;9.290;2022-07-12T08:33:37;6.40;;;3.05;;
57856;SDS011;43683;48.650;9.290;2022-07-12T08:36:03;3.65;;;2.28;;
57856;SDS011;43683;48.650;9.290;2022-07-12T08:38:29;2.03;;;1.80;;
57856;SDS011;43683;48.650;9.290;2022-07-12T08:40:57;1.23;;;1.13;;
57856;SDS011;43683;48.650;9.290;2022-07-12T08:43:22;2.38;;;1.50;;
57856;SDS011;43683;48.650;9.290;2022-07-12T08:45:48;1.85;;;1.45;;
57856;SDS011;43683;48.650;9.290;2022-07-12T08:48:14;2.20;;;1.63;;
57856;SDS011;43683;48.650;9.290;2022-07-12T08:50:40;3.27;;;2.00;;
57856;SDS011;43683;48.650;9.290;2022-07-12T08:53:09;1.55;;;1.10;;
57856;SDS011;43683;48.650;9.290;2022-07-12T08:55:36;1.35;;;0.93;;
57856;SDS011;43683;48.650;9.290;2022-07-12T08:58:03;0.88;;;0.88;;
57856;SDS011;43683;48.650;9.290;2022-07-12T09:00:39;1.95;;;1.27;;
57856;SDS011;43683;48.650;9.290;2022-07-12T09:03:05;2.77;;;1.00;;
57856;SDS011;43683;48.650;9.290;2022-07-12T09:05:33;1.17;;;0.90;;
57856;SDS011;43683;48.650;9.290;2022-07-12T09:10:32;1.13;;;1.02;;
57856;SDS011;43683;48.650;9.290;2022-07-12T09:13:00;1.08;;;0.90;;
57856;SDS011;43683;48.650;9.290;2022-07-12T09:15:25;0.85;;;0.82;;
57856;SDS011;43683;48.650;9.290;2022-07-12T09:20:25;1.25;;;1.02;;
57856;SDS011;43683;48.650;9.290;2022-07-12T09:22:51;0.80;;;0.80;;
57856;SDS011;43683;48.650;9.290;2022-07-12T09:25:18;1.33;;;0.77;;
57856;SDS011;43683;48.650;9.290;2022-07-12T09:27:50;1.25;;;0.70;;
57856;SDS011;43683;48.650;9.290;2022-07-12T09:30:17;1.88;;;0.80;;
57856;SDS011;43683;48.650;9.290;2022-07-12T09:32:50;1.40;;;0.90;;
57856;SDS011;43683;48.650;9.290;2022-07-12T09:35:35;1.83;;;0.60;;
57856;SDS011;43683;48.650;9.290;2022-07-12T09:38:19;0.57;;;0.57;;
57856;SDS011;43683;48.650;9.290;2022-07-12T09:40:45;1.00;;;0.70;;
57856;SDS011;43683;48.650;9.290;2022-07-12T09:43:12;1.50;;;0.70;;
57856;SDS011;43683;48.650;9.290;2022-07-12T09:45:39;0.90;;;0.75;;
57856;SDS011;43683;48.650;9.290;2022-07-12T09:53:00;0.82;;;0.73;;
57856;SDS011;43683;48.650;9.290;2022-07-12T09:55:29;3.10;;;1.27;;
57856;SDS011;43683;48.650;9.290;2022-07-12T09:57:57;1.05;;;0.98;;
57856;SDS011;43683;48.650;9.290;2022-07-12T10:00:26;1.83;;;1.20;;
57856;SDS011;43683;48.650;9.290;2022-07-12T10:02:52;1.17;;;1.00;;
57856;SDS011;43683;48.650;9.290;2022-07-12T10:05:20;1.10;;;0.90;;
57856;SDS011;43683;48.650;9.290;2022-07-12T10:07:49;1.23;;;0.90;;
57856;SDS011;43683;48.650;9.290;2022-07-12T10:10:15;0.80;;;0.70;;
57856;SDS011;43683;48.650;9.290;2022-07-12T10:12:42;1.63;;;1.10;;
57856;SDS011;43683;48.650;9.290;2022-07-12T10:15:15;1.98;;;0.85;;
57856;SDS011;43683;48.650;9.290;2022-07-12T10:17:52;1.02;;;0.80;;
57856;SDS011;43683;48.650;9.290;2022-07-12T10:20:20;0.82;;;0.70;;
57856;SDS011;43683;48.650;9.290;2022-07-12T10:22:48;0.50;;;0.50;;
57856;SDS011;43683;48.650;9.290;2022-07-12T10:25:33;0.93;;;0.70;;
57856;SDS011;43683;48.650;9.290;2022-07-12T10:28:02;2.35;;;0.90;;
57856;SDS011;43683;48.650;9.290;2022-07-12T10:30:28;0.52;;;0.50;;
57856;SDS011;43683;48.650;9.290;2022-07-12T10:35:25;2.92;;;0.80;;
57856;SDS011;43683;48.650;9.290;2022-07-12T10:40:36;0.70;;;0.70;;
57856;SDS011;43683;48.650;9.290;2022-07-12T10:45:32;1.27;;;0.70;;
57856;SDS011;43683;48.650;9.290;2022-07-12T10:48:04;0.60;;;0.60;;
57856;SDS011;43683;48.650;9.290;2022-07-12T10:58:33;0.55;;;0.55;;
57856;SDS011;43683;48.650;9.290;2022-07-12T11:01:03;0.50;;;0.50;;
57856;SDS011;43683;48.650;9.290;2022-07-12T11:06:22;0.50;;;0.50;;
57856;SDS011;43683;48.650;9.290;2022-07-12T11:11:15;2.92;;;0.50;;
57856;SDS011;43683;48.650;9.290;2022-07-12T11:13:41;0.73;;;0.50;;
57856;SDS011;43683;48.650;9.290;2022-07-12T11:16:06;0.73;;;0.50;;
57856;SDS011;43683;48.650;9.290;2022-07-12T11:18:33;0.70;;;0.70;;
57856;SDS011;43683;48.650;9.290;2022-07-12T11:21:00;0.70;;;0.60;;
57856;SDS011;43683;48.650;9.290;2022-07-12T11:23:27;0.40;;;0.32;;
57856;SDS011;43683;48.650;9.290;2022-07-12T11:25:54;1.35;;;0.40;;
57856;SDS011;43683;48.650;9.290;2022-07-12T11:28:21;0.55;;;0.55;;
57856;SDS011;43683;48.650;9.290;2022-07-12T11:30:51;1.08;;;0.43;;
57856;SDS011;43683;48.650;9.290;2022-07-12T11:33:17;0.55;;;0.43;;
57856;SDS011;43683;48.650;9.290;2022-07-12T11:35:43;0.50;;;0.33;;
57856;SDS011;43683;48.650;9.290;2022-07-12T11:38:12;0.40;;;0.40;;
57856;SDS011;43683;48.650;9.290;2022-07-12T11:40:38;1.60;;;0.40;;
57856;SDS011;43683;48.650;9.290;2022-07-12T11:43:03;0.55;;;0.50;;
57856;SDS011;43683;48.650;9.290;2022-07-12T11:45:31;0.40;;;0.40;;
57856;SDS011;43683;48.650;9.290;2022-07-12T11:47:58;1.50;;;0.50;;
57856;SDS011;43683;48.650;9.290;2022-07-12T11:50:25;1.23;;;0.63;;
57856;SDS011;43683;48.650;9.290;2022-07-12T11:52:51;2.37;;;0.60;;
57856;SDS011;43683;48.650;9.290;2022-07-12T11:55:17;2.08;;;0.52;;
57856;SDS011;43683;48.650;9.290;2022-07-12T11:57:43;0.30;;;0.30;;
57856;SDS011;43683;48.650;9.290;2022-07-12T12:02:52;0.63;;;0.45;;
57856;SDS011;43683;48.650;9.290;2022-07-12T12:05:21;0.57;;;0.40;;
57856;SDS011;43683;48.650;9.290;2022-07-12T12:07:47;0.75;;;0.30;;
57856;SDS011;43683;48.650;9.290;2022-07-12T12:10:13;1.77;;;0.70;;
57856;SDS011;43683;48.650;9.290;2022-07-12T12:12:43;1.23;;;0.60;;
57856;SDS011;43683;48.650;9.290;2022-07-12T12:15:14;0.50;;;0.50;;
57856;SDS011;43683;48.650;9.290;2022-07-12T12:20:12;1.27;;;0.70;;
57856;SDS011;43683;48.650;9.290;2022-07-12T12:22:40;0.80;;;0.60;;
57856;SDS011;43683;48.650;9.290;2022-07-12T12:27:41;2.22;;;0.50;;
57856;SDS011;43683;48.650;9.290;2022-07-12T12:30:07;1.30;;;0.60;;
57856;SDS011;43683;48.650;9.290;2022-07-12T12:35:19;1.15;;;0.40;;
57856;SDS011;43683;48.650;9.290;2022-07-12T12:37:59;0.88;;;0.40;;
57856;SDS011;43683;48.650;9.290;2022-07-12T12:40:26;0.40;;;0.25;;
57856;SDS011;43683;48.650;9.290;2022-07-12T12:43:04;1.65;;;0.43;;
57856;SDS011;43683;48.650;9.290;2022-07-12T12:45:50;0.82;;;0.45;;
57856;SDS011;43683;48.650;9.290;2022-07-12T12:48:17;0.50;;;0.40;;
57856;SDS011;43683;48.650;9.290;2022-07-12T12:50:45;0.95;;;0.50;;
57856;SDS011;43683;48.650;9.290;2022-07-12T12:53:16;0.28;;;0.28;;
57856;SDS011;43683;48.650;9.290;2022-07-12T12:55:44;0.60;;;0.50;;
57856;SDS011;43683;48.650;9.290;2022-07-12T12:58:11;1.00;;;0.40;;
57856;SDS011;43683;48.650;9.290;2022-07-12T13:00:38;1.50;;;0.60;;
57856;SDS011;43683;48.650;9.290;2022-07-12T13:03:06;2.28;;;0.57;;
57856;SDS011;43683;48.650;9.290;2022-07-12T13:05:35;1.15;;;0.50;;
57856;SDS011;43683;48.650;9.290;2022-07-12T13:08:02;1.63;;;0.53;;
57856;SDS011;43683;48.650;9.290;2022-07-12T13:10:29;1.33;;;0.40;;
57856;SDS011;43683;48.650;9.290;2022-07-12T13:12:55;1.33;;;0.47;;
57856;SDS011;43683;48.650;9.290;2022-07-12T13:15:21;0.55;;;0.38;;
57856;SDS011;43683;48.650;9.290;2022-07-12T13:17:47;1.13;;;0.30;;
57856;SDS011;43683;48.650;9.290;2022-07-12T13:20:13;0.30;;;0.30;;
57856;SDS011;43683;48.650;9.290;2022-07-12T13:22:39;0.30;;;0.30;;
57856;SDS011;43683;48.650;9.290;2022-07-12T13:25:06;0.95;;;0.50;;
57856;SDS011;43683;48.650;9.290;2022-07-12T13:27:32;0.55;;;0.32;;
57856;SDS011;43683;48.650;9.290;2022-07-12T13:29:58;1.73;;;0.70;;
57856;SDS011;43683;48.650;9.290;2022-07-12T13:32:24;1.00;;;0.90;;
57856;SDS011;43683;48.650;9.290;2022-07-12T13:34:50;1.50;;;0.40;;
57856;SDS011;43683;48.650;9.290;2022-07-12T13:37:16;0.40;;;0.35;;
57856;SDS011;43683;48.650;9.290;2022-07-12T13:39:41;0.53;;;0.40;;
57856;SDS011;43683;48.650;9.290;2022-07-12T13:42:25;0.65;;;0.40;;
57856;SDS011;43683;48.650;9.290;2022-07-12T13:44:51;0.93;;;0.30;;
57856;SDS011;43683;48.650;9.290;2022-07-12T13:47:20;1.60;;;0.30;;
57856;SDS011;43683;48.650;9.290;2022-07-12T13:49:47;0.28;;;0.28;;
57856;SDS011;43683;48.650;9.290;2022-07-12T13:52:16;0.40;;;0.40;;
57856;SDS011;43683;48.650;9.290;2022-07-12T13:54:42;0.30;;;0.30;;
57856;SDS011;43683;48.650;9.290;2022-07-12T13:57:08;0.40;;;0.40;;
57856;SDS011;43683;48.650;9.290;2022-07-12T13:59:34;0.40;;;0.40;;
57856;SDS011;43683;48.650;9.290;2022-07-12T14:02:00;0.52;;;0.30;;
57856;SDS011;43683;48.650;9.290;2022-07-12T14:04:25;0.30;;;0.30;;
57856;SDS011;43683;48.650;9.290;2022-07-12T14:06:51;0.30;;;0.30;;
57856;SDS011;43683;48.650;9.290;2022-07-12T14:09:16;0.57;;;0.30;;
57856;SDS011;43683;48.650;9.290;2022-07-12T14:11:42;0.40;;;0.30;;
57856;SDS011;43683;48.650;9.290;2022-07-12T14:14:07;0.30;;;0.30;;
57856;SDS011;43683;48.650;9.290;2022-07-12T14:16:33;0.40;;;0.40;;
57856;SDS011;43683;48.650;9.290;2022-07-12T14:18:59;1.53;;;0.30;;
57856;SDS011;43683;48.650;9.290;2022-07-12T14:21:26;0.38;;;0.30;;
57856;SDS011;43683;48.650;9.290;2022-07-12T14:26:18;0.65;;;0.30;;
57856;SDS011;43683;48.650;9.290;2022-07-12T14:28:44;0.30;;;0.30;;
57856;SDS011;43683;48.650;9.290;2022-07-12T14:31:09;0.30;;;0.30;;
57856;SDS011;43683;48.650;9.290;2022-07-12T14:33:35;0.67;;;0.30;;
57856;SDS011;43683;48.650;9.290;2022-07-12T14:36:00;0.57;;;0.20;;
57856;SDS011;43683;48.650;9.290;2022-07-12T14:38:26;0.83;;;0.17;;
57856;SDS011;43683;48.650;9.290;2022-07-12T14:40:51;0.97;;;0.40;;
57856;SDS011;43683;48.650;9.290;2022-07-12T14:43:18;0.60;;;0.32;;
57856;SDS011;43683;48.650;9.290;2022-07-12T14:45:45;0.38;;;0.20;;
57856;SDS011;43683;48.650;9.290;2022-07-12T14:48:10;0.30;;;0.30;;
57856;SDS011;43683;48.650;9.290;2022-07-12T14:50:37;1.38;;;0.40;;
57856;SDS011;43683;48.650;9.290;2022-07-12T14:53:03;0.43;;;0.30;;
57856;SDS011;43683;48.650;9.290;2022-07-12T14:55:29;0.60;;;0.30;;
57856;SDS011;43683;48.650;9.290;2022-07-12T14:57:54;0.40;;;0.40;;
57856;SDS011;43683;48.650;9.290;2022-07-12T15:00:20;1.10;;;0.30;;
57856;SDS011;43683;48.650;9.290;2022-07-12T15:02:46;0.50;;;0.30;;
57856;SDS011;43683;48.650;9.290;2022-07-12T15:07:38;0.22;;;0.22;;
57856;SDS011;43683;48.650;9.290;2022-07-12T15:10:04;0.30;;;0.30;;
57856;SDS011;43683;48.650;9.290;2022-07-12T15:12:30;1.65;;;0.32;;
57856;SDS011;43683;48.650;9.290;2022-07-12T15:14:57;0.30;;;0.25;;
57856;SDS011;43683;48.650;9.290;2022-07-12T15:17:22;1.25;;;0.30;;
57856;SDS011;43683;48.650;9.290;2022-07-12T15:19:48;0.57;;;0.30;;
57856;SDS011;43683;48.650;9.290;2022-07-12T15:22:14;0.30;;;0.30;;
57856;SDS011;43683;48.650;9.290;2022-07-12T15:24:40;0.30;;;0.30;;
57856;SDS011;43683;48.650;9.290;2022-07-12T15:27:06;0.60;;;0.43;;
57856;SDS011;43683;48.650;9.290;2022-07-12T15:29:33;0.40;;;0.40;;
57856;SDS011;43683;48.650;9.290;2022-07-12T15:32:04;0.57;;;0.28;;
57856;SDS011;43683;48.650;9.290;2022-07-12T15:36:55;1.02;;;0.30;;
57856;SDS011;43683;48.650;9.290;2022-07-12T15:39:21;0.40;;;0.30;;